F/V Roger Christian3 — FUFL — position and weather

sailwx.info

Track history (hours):
 
Tides and Currents Weather Stations Pressure Air Temp Water Temp Dewpoint Dewpoint Depression Visibility Wind Speed Wind Dir Waves Ship Positions

F/V Roger Christian3

Last reported at 2015-Mar-28 20:20 UTC. Time now 2015-Mar-28 23:54 UTC.
Position N 43°24' E 003°42'.

Length 24 m; draft 4 m.

Type: Fishing. MMSI: 228173800.

Date/timePositionNaut miles runAvg speedWind from/ knotsBaromVisibWave heightAir tempDewpointWater temp
2015-Mar-28 20:20N 43°24' E 003°42'0 0.0
2015-Mar-28 19:24N 43°24' E 003°42'0 0.0
2015-Mar-28 18:19N 43°24' E 003°42'0 0.0
2015-Mar-28 17:27N 43°24' E 003°42'0 0.0
2015-Mar-28 16:27N 43°24' E 003°42'0 0.0
2015-Mar-28 15:22N 43°24' E 003°42'0 0.0
2015-Mar-28 14:28N 43°24' E 003°42'0 0.0
2015-Mar-28 13:28N 43°24' E 003°42'0 0.0
2015-Mar-28 12:21N 43°24' E 003°42'0 0.0
2015-Mar-28 11:32N 43°24' E 003°42'1 0.4
2015-Mar-28 10:21N 43°24' E 003°42'1 0.1
2015-Mar-28 02:10N 43°24' E 003°42'0 0.0
2015-Mar-27 23:21N 43°24' E 003°42'0 0.0
2015-Mar-27 22:28N 43°24' E 003°42'9 1.0
2015-Mar-27 13:32N 43°16' E 003°48'9 4.1
2015-Mar-27 11:23N 43°16' E 004°00'4 4.4
2015-Mar-27 10:33N 43°15' E 004°05'5 4.6
2015-Mar-27 09:29N 43°14' E 004°12'4 3.5
2015-Mar-27 08:28N 43°13' E 004°16'4 3.4
2015-Mar-27 07:25N 43°15' E 004°12'4 4.2
2015-Mar-27 06:33N 43°16' E 004°07'4 4.1
2015-Mar-27 05:30N 43°19' E 004°03'5 4.1
2015-Mar-27 04:10N 43°19' E 003°55'10 5.1
2015-Mar-27 02:12N 43°23' E 003°42'1 0.3
2015-Mar-26 22:07N 43°24' E 003°42'3 0.5
2015-Mar-26 15:31N 43°21' E 003°44'4 4.4
2015-Mar-26 14:33N 43°17' E 003°45'3 2.8
2015-Mar-26 13:34N 43°14' E 003°44'5 4.4
2015-Mar-26 12:27N 43°13' E 003°51'3 2.9
2015-Mar-26 11:33N 43°15' E 003°54'4 3.7
2015-Mar-26 10:33N 43°16' E 003°49'5 4.3
2015-Mar-26 09:29N 43°15' E 003°42'8 4.1
2015-Mar-26 07:29N 43°10' E 003°34'3 3.3
2015-Mar-26 06:29N 43°12' E 003°37'4 4.1
2015-Mar-26 05:29N 43°15' E 003°41'4 4.2
2015-Mar-26 04:29N 43°17' E 003°46'4 4.3
2015-Mar-26 03:29N 43°20' E 003°50'3 3.1
2015-Mar-26 02:29N 43°23' E 003°49'6 2.5
2015-Mar-26 00:13N 43°24' E 003°42'0 0.0
2015-Mar-25 21:26N 43°24' E 003°42'0 0.0
2015-Mar-25 20:11N 43°24' E 003°42'0 0.0
2015-Mar-25 18:05N 43°24' E 003°42'0 0.2
2015-Mar-25 16:13N 43°24' E 003°42'0 0.5
2015-Mar-25 15:26N 43°24' E 003°42'8 3.7
2015-Mar-25 13:24N 43°20' E 003°51'5 4.2
2015-Mar-25 12:07N 43°19' E 003°58'4 4.5
2015-Mar-25 11:10N 43°18' E 004°04'4 4.5
2015-Mar-25 10:20N 43°17' E 004°08'10 3.6
2015-Mar-25 07:29N 43°10' E 004°19'19 4.2
2015-Mar-25 03:06N 43°18' E 003°56'12 2.5
2015-Mar-24 22:22N 43°24' E 003°42'0 0.0
2015-Mar-24 19:12N 43°24' E 003°42'0 0.0
2015-Mar-24 17:22N 43°24' E 003°42'1 0.7
2015-Mar-24 16:32N 43°24' E 003°43'2611.9
2015-Mar-24 14:18N 43°11' E 004°15'4 3.7
2015-Mar-24 13:13N 43°09' E 004°19'4 4.7
2015-Mar-24 12:27N 43°08' E 004°24'5 4.5
2015-Mar-24 11:20N 43°05' E 004°30'3 2.9
2015-Mar-24 10:24N 43°04' E 004°33'5 4.4
2015-Mar-24 09:23N 43°03' E 004°39'4 4.1
2015-Mar-24 08:26N 43°05' E 004°44'4 2.7
2015-Mar-24 07:06N 43°08' E 004°45'3 5.5
2015-Mar-24 06:30N 43°11' E 004°47'3 3.5
2015-Mar-24 05:33N 43°13' E 004°50'5 4.4
2015-Mar-24 04:18N 43°14' E 004°58'3 4.4
2015-Mar-24 03:33N 43°15' E 005°02'4 3.9
2015-Mar-24 02:33N 43°19' E 005°00'5 5.3
2015-Mar-24 01:33N 43°24' E 004°59'0 0.0
2015-Mar-24 00:33N 43°24' E 004°59'0 0.0
2015-Mar-23 23:33N 43°24' E 004°59'0 0.0
2015-Mar-23 22:33N 43°24' E 004°59'0 0.0
2015-Mar-23 21:33N 43°24' E 004°59'0 0.0
2015-Mar-23 20:33N 43°24' E 004°59'0 0.0
2015-Mar-23 19:33N 43°24' E 004°59'0 0.0
2015-Mar-23 18:33N 43°24' E 004°59'7 7.4
2015-Mar-23 17:33N 43°17' E 005°01'5 1.1
2015-Mar-23 13:32N 43°12' E 004°60'4 4.4
2015-Mar-23 12:31N 43°11' E 004°54'15 2.8
2015-Mar-23 07:06N 43°02' E 004°38'2 4.2
2015-Mar-23 06:31N 43°03' E 004°35'44 4.9
2015-Mar-22 21:27N 43°24' E 003°42'0 0.0
2015-Mar-22 20:30N 43°24' E 003°42'0 0.0
2015-Mar-22 19:20N 43°24' E 003°42'0 0.0
2015-Mar-22 18:22N 43°24' E 003°42'0 0.0
2015-Mar-22 17:10N 43°24' E 003°42'0 0.0
2015-Mar-22 16:10N 43°24' E 003°42'0 0.0
2015-Mar-22 14:21N 43°24' E 003°42'0 0.0
2015-Mar-22 11:12N 43°24' E 003°42'0 0.0
2015-Mar-22 10:26N 43°24' E 003°42'0 0.0
2015-Mar-22 09:27N 43°24' E 003°42'0 0.0
2015-Mar-22 00:33N 43°24' E 003°42'0 0.0
2015-Mar-21 22:11N 43°24' E 003°42'0 0.0
2015-Mar-21 21:04N 43°24' E 003°42'0 0.0
2015-Mar-21 16:16N 43°24' E 003°42'0 0.0
2015-Mar-21 14:28N 43°24' E 003°42'0 0.0
2015-Mar-21 11:21N 43°24' E 003°42'0 0.0
2015-Mar-20 22:31N 43°24' E 003°42'0 0.0
2015-Mar-20 16:28N 43°24' E 003°42'9 9.8
2015-Mar-20 15:32N 43°15' E 003°47'7 6.4
2015-Mar-20 14:30N 43°09' E 003°51'5 4.6
2015-Mar-20 13:27N 43°05' E 003°54'4 4.5
2015-Mar-20 12:30N 43°01' E 003°57'4 3.2
2015-Mar-20 11:21N 43°00' E 004°02'7 3.8
2015-Mar-20 09:26N 42°59' E 004°11'4 3.9
2015-Mar-20 08:23N 42°58' E 004°17'2 1.3
2015-Mar-20 07:07N 42°58' E 004°19'3 4.3
2015-Mar-20 06:21N 43°00' E 004°16'34 2.8
2015-Mar-19 18:12N 43°24' E 003°42'0 0.1
2015-Mar-19 15:25N 43°24' E 003°42'0 0.5
2015-Mar-19 14:32N 43°24' E 003°42'6 6.2
2015-Mar-19 13:30N 43°21' E 003°50'1212.1
2015-Mar-19 12:31N 43°14' E 004°03'1512.1
2015-Mar-19 11:19N 43°06' E 004°20'5 7.2
2015-Mar-19 10:33N 43°03' E 004°26'5 4.1
2015-Mar-19 09:21N 43°02' E 004°33'4 4.5
2015-Mar-19 08:33N 43°01' E 004°37'4 4.2
2015-Mar-19 07:33N 43°00' E 004°43'4 3.4
2015-Mar-19 06:20N 43°03' E 004°47'9 4.3
2015-Mar-19 04:10N 43°11' E 004°54'3 4.4
2015-Mar-19 03:29N 43°13' E 004°57'6 6.9
2015-Mar-19 02:33N 43°19' E 004°59'5 5.2
2015-Mar-19 01:33N 43°24' E 004°59'0 0.0
2015-Mar-19 00:33N 43°24' E 004°59'0 0.0
2015-Mar-18 23:33N 43°24' E 004°59'0 0.0
2015-Mar-18 22:33N 43°24' E 004°59'0 0.0
2015-Mar-18 21:33N 43°24' E 004°59'0 0.0
2015-Mar-18 20:33N 43°24' E 004°59'  
Track history (hours):
 
Tides and Currents Weather Stations Pressure Air Temp Water Temp Dewpoint Dewpoint Depression Visibility Wind Speed Wind Dir Waves Ship Positions

F/V Roger Christian3

Last reported at 2015-Mar-28 20:20 UTC. Time now 2015-Mar-28 23:54 UTC.
Position N 43°24' E 003°42'.

Length 24 m; draft 4 m.

Type: Fishing. MMSI: 228173800.

Date/timePositionNaut miles runAvg speedWind from/ knotsBaromVisibWave heightAir tempDewpointWater temp
2015-Mar-28 20:20N 43°24' E 003°42'0 0.0
2015-Mar-28 19:24N 43°24' E 003°42'0 0.0
2015-Mar-28 18:19N 43°24' E 003°42'0 0.0
2015-Mar-28 17:27N 43°24' E 003°42'0 0.0
2015-Mar-28 16:27N 43°24' E 003°42'0 0.0
2015-Mar-28 15:22N 43°24' E 003°42'0 0.0
2015-Mar-28 14:28N 43°24' E 003°42'0 0.0
2015-Mar-28 13:28N 43°24' E 003°42'0 0.0
2015-Mar-28 12:21N 43°24' E 003°42'0 0.0
2015-Mar-28 11:32N 43°24' E 003°42'1 0.4
2015-Mar-28 10:21N 43°24' E 003°42'1 0.1
2015-Mar-28 02:10N 43°24' E 003°42'0 0.0
2015-Mar-27 23:21N 43°24' E 003°42'0 0.0
2015-Mar-27 22:28N 43°24' E 003°42'9 1.0
2015-Mar-27 13:32N 43°16' E 003°48'9 4.1
2015-Mar-27 11:23N 43°16' E 004°00'4 4.4
2015-Mar-27 10:33N 43°15' E 004°05'5 4.6
2015-Mar-27 09:29N 43°14' E 004°12'4 3.5
2015-Mar-27 08:28N 43°13' E 004°16'4 3.4
2015-Mar-27 07:25N 43°15' E 004°12'4 4.2
2015-Mar-27 06:33N 43°16' E 004°07'4 4.1
2015-Mar-27 05:30N 43°19' E 004°03'5 4.1
2015-Mar-27 04:10N 43°19' E 003°55'10 5.1
2015-Mar-27 02:12N 43°23' E 003°42'1 0.3
2015-Mar-26 22:07N 43°24' E 003°42'3 0.5
2015-Mar-26 15:31N 43°21' E 003°44'4 4.4
2015-Mar-26 14:33N 43°17' E 003°45'3 2.8
2015-Mar-26 13:34N 43°14' E 003°44'5 4.4
2015-Mar-26 12:27N 43°13' E 003°51'3 2.9
2015-Mar-26 11:33N 43°15' E 003°54'4 3.7
2015-Mar-26 10:33N 43°16' E 003°49'5 4.3
2015-Mar-26 09:29N 43°15' E 003°42'8 4.1
2015-Mar-26 07:29N 43°10' E 003°34'3 3.3
2015-Mar-26 06:29N 43°12' E 003°37'4 4.1
2015-Mar-26 05:29N 43°15' E 003°41'4 4.2
2015-Mar-26 04:29N 43°17' E 003°46'4 4.3
2015-Mar-26 03:29N 43°20' E 003°50'3 3.1
2015-Mar-26 02:29N 43°23' E 003°49'6 2.5
2015-Mar-26 00:13N 43°24' E 003°42'0 0.0
2015-Mar-25 21:26N 43°24' E 003°42'0 0.0
2015-Mar-25 20:11N 43°24' E 003°42'0 0.0
2015-Mar-25 18:05N 43°24' E 003°42'0 0.2
2015-Mar-25 16:13N 43°24' E 003°42'0 0.5
2015-Mar-25 15:26N 43°24' E 003°42'8 3.7
2015-Mar-25 13:24N 43°20' E 003°51'5 4.2
2015-Mar-25 12:07N 43°19' E 003°58'4 4.5
2015-Mar-25 11:10N 43°18' E 004°04'4 4.5
2015-Mar-25 10:20N 43°17' E 004°08'10 3.6
2015-Mar-25 07:29N 43°10' E 004°19'19 4.2
2015-Mar-25 03:06N 43°18' E 003°56'12 2.5
2015-Mar-24 22:22N 43°24' E 003°42'0 0.0
2015-Mar-24 19:12N 43°24' E 003°42'0 0.0
2015-Mar-24 17:22N 43°24' E 003°42'1 0.7
2015-Mar-24 16:32N 43°24' E 003°43'2611.9
2015-Mar-24 14:18N 43°11' E 004°15'4 3.7
2015-Mar-24 13:13N 43°09' E 004°19'4 4.7
2015-Mar-24 12:27N 43°08' E 004°24'5 4.5
2015-Mar-24 11:20N 43°05' E 004°30'3 2.9
2015-Mar-24 10:24N 43°04' E 004°33'5 4.4
2015-Mar-24 09:23N 43°03' E 004°39'4 4.1
2015-Mar-24 08:26N 43°05' E 004°44'4 2.7
2015-Mar-24 07:06N 43°08' E 004°45'3 5.5
2015-Mar-24 06:30N 43°11' E 004°47'3 3.5
2015-Mar-24 05:33N 43°13' E 004°50'5 4.4
2015-Mar-24 04:18N 43°14' E 004°58'3 4.4
2015-Mar-24 03:33N 43°15' E 005°02'4 3.9
2015-Mar-24 02:33N 43°19' E 005°00'5 5.3
2015-Mar-24 01:33N 43°24' E 004°59'0 0.0
2015-Mar-24 00:33N 43°24' E 004°59'0 0.0
2015-Mar-23 23:33N 43°24' E 004°59'0 0.0
2015-Mar-23 22:33N 43°24' E 004°59'0 0.0
2015-Mar-23 21:33N 43°24' E 004°59'0 0.0
2015-Mar-23 20:33N 43°24' E 004°59'0 0.0
2015-Mar-23 19:33N 43°24' E 004°59'0 0.0
2015-Mar-23 18:33N 43°24' E 004°59'7 7.4
2015-Mar-23 17:33N 43°17' E 005°01'5 1.1
2015-Mar-23 13:32N 43°12' E 004°60'4 4.4
2015-Mar-23 12:31N 43°11' E 004°54'15 2.8
2015-Mar-23 07:06N 43°02' E 004°38'2 4.2
2015-Mar-23 06:31N 43°03' E 004°35'44 4.9
2015-Mar-22 21:27N 43°24' E 003°42'0 0.0
2015-Mar-22 20:30N 43°24' E 003°42'0 0.0
2015-Mar-22 19:20N 43°24' E 003°42'0 0.0
2015-Mar-22 18:22N 43°24' E 003°42'0 0.0
2015-Mar-22 17:10N 43°24' E 003°42'0 0.0
2015-Mar-22 16:10N 43°24' E 003°42'0 0.0
2015-Mar-22 14:21N 43°24' E 003°42'0 0.0
2015-Mar-22 11:12N 43°24' E 003°42'0 0.0
2015-Mar-22 10:26N 43°24' E 003°42'0 0.0
2015-Mar-22 09:27N 43°24' E 003°42'0 0.0
2015-Mar-22 00:33N 43°24' E 003°42'0 0.0
2015-Mar-21 22:11N 43°24' E 003°42'0 0.0
2015-Mar-21 21:04N 43°24' E 003°42'0 0.0
2015-Mar-21 16:16N 43°24' E 003°42'0 0.0
2015-Mar-21 14:28N 43°24' E 003°42'0 0.0
2015-Mar-21 11:21N 43°24' E 003°42'0 0.0
2015-Mar-20 22:31N 43°24' E 003°42'0 0.0
2015-Mar-20 16:28N 43°24' E 003°42'9 9.8
2015-Mar-20 15:32N 43°15' E 003°47'7 6.4
2015-Mar-20 14:30N 43°09' E 003°51'5 4.6
2015-Mar-20 13:27N 43°05' E 003°54'4 4.5
2015-Mar-20 12:30N 43°01' E 003°57'4 3.2
2015-Mar-20 11:21N 43°00' E 004°02'7 3.8
2015-Mar-20 09:26N 42°59' E 004°11'4 3.9
2015-Mar-20 08:23N 42°58' E 004°17'2 1.3
2015-Mar-20 07:07N 42°58' E 004°19'3 4.3
2015-Mar-20 06:21N 43°00' E 004°16'34 2.8
2015-Mar-19 18:12N 43°24' E 003°42'0 0.1
2015-Mar-19 15:25N 43°24' E 003°42'0 0.5
2015-Mar-19 14:32N 43°24' E 003°42'6 6.2
2015-Mar-19 13:30N 43°21' E 003°50'1212.1
2015-Mar-19 12:31N 43°14' E 004°03'1512.1
2015-Mar-19 11:19N 43°06' E 004°20'5 7.2
2015-Mar-19 10:33N 43°03' E 004°26'5 4.1
2015-Mar-19 09:21N 43°02' E 004°33'4 4.5
2015-Mar-19 08:33N 43°01' E 004°37'4 4.2
2015-Mar-19 07:33N 43°00' E 004°43'4 3.4
2015-Mar-19 06:20N 43°03' E 004°47'9 4.3
2015-Mar-19 04:10N 43°11' E 004°54'3 4.4
2015-Mar-19 03:29N 43°13' E 004°57'6 6.9
2015-Mar-19 02:33N 43°19' E 004°59'5 5.2
2015-Mar-19 01:33N 43°24' E 004°59'0 0.0
2015-Mar-19 00:33N 43°24' E 004°59'0 0.0
2015-Mar-18 23:33N 43°24' E 004°59'0 0.0
2015-Mar-18 22:33N 43°24' E 004°59'0 0.0
2015-Mar-18 21:33N 43°24' E 004°59'0 0.0
2015-Mar-18 20:33N 43°24' E 004°59'  

Dump ship's entire track history